Time;durP1;ratioP1;P1;durP2;ratioP2;P2;SDS_P1;SDS_P2;PMS_P1;PMS_P2;Temp;Humidity;BMP_temperature;BMP_pressure;BME280_temperature;BME280_humidity;BME280_pressure;Samples;Min_cycle;Max_cycle;Signal;HPM_P1;HPM_P2
2021/04/30 00:01:13;;;;;;;7.80;7.00;;;7.70;99.90;;;;;;5011557;28;20576;-75
2021/04/30 00:03:39;;;;;;;6.53;5.93;;;7.70;99.90;;;;;;5011321;28;20462;-74
2021/04/30 00:06:06;;;;;;;7.87;7.07;;;7.70;99.90;;;;;;5011009;28;20503;-74
2021/04/30 00:08:33;;;;;;;8.03;6.97;;;7.80;99.90;;;;;;5011323;28;20492;-74
2021/04/30 00:10:59;;;;;;;7.20;6.57;;;7.70;99.90;;;;;;5011606;28;20491;-74
2021/04/30 00:13:26;;;;;;;8.70;7.90;;;7.70;99.90;;;;;;5011440;28;20592;-74
2021/04/30 00:15:52;;;;;;;8.50;7.70;;;7.60;99.90;;;;;;5011165;28;20548;-74
2021/04/30 00:18:19;;;;;;;8.53;7.63;;;7.60;99.90;;;;;;5010974;28;20534;-73
2021/04/30 00:20:52;;;;;;;7.93;7.13;;;7.70;99.90;;;;;;5011027;28;20568;-73
2021/04/30 00:23:24;;;;;;;9.77;7.57;;;7.70;99.90;;;;;;5011335;28;20554;-72
2021/04/30 00:25:51;;;;;;;9.63;7.90;;;7.70;99.90;;;;;;5010807;28;20453;-73
2021/04/30 00:28:18;;;;;;;10.50;7.17;;;7.70;99.90;;;;;;5010853;28;20856;-74
2021/04/30 00:30:44;;;;;;;8.57;7.77;;;7.70;99.90;;;;;;5011178;28;20817;-74
2021/04/30 00:33:11;;;;;;;9.80;8.90;;;7.70;99.90;;;;;;5010845;28;20454;-73
2021/04/30 00:35:37;;;;;;;8.80;7.90;;;7.60;99.90;;;;;;5010854;28;20523;-75
2021/04/30 00:38:04;;;;;;;8.40;7.60;;;7.60;99.90;;;;;;5011093;28;20456;-73
2021/04/30 00:40:31;;;;;;;7.80;7.00;;;7.60;99.90;;;;;;5010877;28;21040;-75
2021/04/30 00:42:57;;;;;;;9.17;8.37;;;7.60;99.90;;;;;;5010716;28;20537;-74
2021/04/30 00:45:24;;;;;;;9.87;8.77;;;7.60;99.90;;;;;;5010612;28;20553;-75
2021/04/30 00:47:53;;;;;;;8.97;8.17;;;7.50;99.90;;;;;;5011151;28;20520;-75
2021/04/30 00:50:21;;;;;;;13.90;9.07;;;7.50;99.90;;;;;;5010655;28;20952;-74
2021/04/30 00:52:47;;;;;;;8.87;7.97;;;7.40;99.90;;;;;;5010787;28;20452;-73
2021/04/30 00:55:15;;;;;;;9.70;8.70;;;7.50;99.90;;;;;;5012507;28;20469;-74
2021/04/30 00:57:47;;;;;;;9.60;8.60;;;7.50;99.90;;;;;;5014645;28;21009;-77
2021/04/30 01:00:15;;;;;;;9.37;8.20;;;7.50;99.90;;;;;;5014445;28;20485;-73
2021/04/30 01:02:42;;;;;;;8.60;7.70;;;7.40;99.90;;;;;;5014447;28;20509;-74
2021/04/30 01:05:09;;;;;;;10.20;9.10;;;7.40;99.90;;;;;;5014546;28;20493;-72
2021/04/30 01:07:36;;;;;;;11.00;9.00;;;7.40;99.90;;;;;;5014920;28;20536;-74
2021/04/30 01:10:03;;;;;;;9.50;8.50;;;7.30;99.90;;;;;;5014568;28;20520;-74
2021/04/30 01:12:30;;;;;;;11.17;10.17;;;7.20;99.90;;;;;;5014443;28;20873;-75
2021/04/30 01:14:57;;;;;;;10.37;9.37;;;7.20;99.90;;;;;;5014158;28;20468;-73
2021/04/30 01:17:23;;;;;;;10.43;8.60;;;7.10;99.90;;;;;;5014315;28;20468;-76
2021/04/30 01:19:50;;;;;;;10.87;9.50;;;7.10;99.90;;;;;;5014288;28;20532;-76
2021/04/30 01:22:33;;;;;;;9.80;8.83;;;7.00;99.90;;;;;;5014018;28;20460;-74
2021/04/30 01:25:00;;;;;;;10.00;8.93;;;7.00;99.90;;;;;;5013715;28;20465;-74
2021/04/30 01:27:26;;;;;;;10.47;9.40;;;7.10;99.90;;;;;;5013750;28;20544;-73
2021/04/30 01:29:52;;;;;;;11.17;10.03;;;7.10;99.90;;;;;;5013658;28;20524;-74
2021/04/30 01:32:19;;;;;;;10.43;9.43;;;7.10;99.90;;;;;;5013913;28;20968;-72
2021/04/30 01:34:45;;;;;;;10.33;9.30;;;7.20;99.90;;;;;;5013562;28;20465;-73
2021/04/30 01:37:12;;;;;;;12.40;9.37;;;7.20;99.90;;;;;;5013679;28;21006;-74
2021/04/30 01:39:40;;;;;;;10.17;9.17;;;7.20;99.90;;;;;;5013831;28;20595;-74
2021/04/30 01:42:07;;;;;;;10.87;9.77;;;7.30;99.90;;;;;;5013664;28;20499;-72
2021/04/30 01:44:34;;;;;;;10.40;9.30;;;7.30;99.90;;;;;;5013303;28;20553;-74
2021/04/30 01:47:01;;;;;;;9.27;8.27;;;7.30;99.90;;;;;;5013561;28;20495;-75
2021/04/30 01:49:28;;;;;;;10.30;9.30;;;7.30;99.90;;;;;;5013605;28;20454;-74
2021/04/30 01:51:55;;;;;;;10.50;9.40;;;7.30;99.90;;;;;;5013518;28;20453;-75
2021/04/30 01:54:21;;;;;;;10.60;9.60;;;7.40;99.90;;;;;;5013376;28;20555;-75
2021/04/30 01:56:49;;;;;;;11.30;9.37;;;7.30;99.90;;;;;;5013238;28;20532;-73
2021/04/30 01:59:15;;;;;;;10.67;9.60;;;7.30;99.90;;;;;;5013349;28;20442;-76
2021/04/30 02:01:42;;;;;;;10.80;9.43;;;7.40;99.90;;;;;;5013538;28;20478;-73
2021/04/30 02:04:11;;;;;;;11.67;10.47;;;7.40;99.90;;;;;;5013130;28;20493;-74
2021/04/30 02:06:38;;;;;;;10.00;9.10;;;7.40;99.90;;;;;;5012470;28;20449;-74
2021/04/30 02:09:06;;;;;;;10.60;9.50;;;7.30;99.90;;;;;;5013282;28;20806;-74
2021/04/30 02:11:33;;;;;;;11.57;10.37;;;7.40;99.90;;;;;;5013132;28;20817;-74
2021/04/30 02:14:01;;;;;;;10.77;9.70;;;7.40;99.90;;;;;;5012889;28;20548;-75
2021/04/30 02:16:27;;;;;;;10.40;9.33;;;7.40;99.90;;;;;;5013189;28;20450;-74
2021/04/30 02:18:54;;;;;;;11.60;10.40;;;7.50;99.90;;;;;;5013060;28;20445;-75
2021/04/30 02:21:20;;;;;;;11.53;10.30;;;7.60;99.90;;;;;;5012950;28;20481;-74
2021/04/30 02:23:47;;;;;;;13.13;11.50;;;7.60;99.90;;;;;;5012625;28;20925;-72
2021/04/30 02:26:15;;;;;;;13.03;11.70;;;7.60;99.90;;;;;;5011950;28;20460;-76
2021/04/30 02:28:43;;;;;;;11.67;10.57;;;7.60;99.90;;;;;;5012457;28;20827;-74
2021/04/30 02:31:10;;;;;;;11.80;9.47;;;7.60;99.90;;;;;;5012481;28;20446;-74
2021/04/30 02:33:36;;;;;;;10.97;9.83;;;7.60;99.90;;;;;;5012765;28;20601;-75
2021/04/30 02:36:03;;;;;;;11.17;10.10;;;7.60;99.90;;;;;;5012551;28;20461;-74
2021/04/30 02:38:31;;;;;;;10.43;9.13;;;7.60;99.90;;;;;;5012552;28;20445;-75
2021/04/30 02:40:57;;;;;;;10.10;9.10;;;7.60;99.90;;;;;;5012531;28;20518;-76
2021/04/30 02:43:24;;;;;;;11.20;10.00;;;7.60;99.90;;;;;;5012393;28;20457;-76
2021/04/30 02:45:51;;;;;;;11.63;10.40;;;7.50;99.90;;;;;;5012190;28;20956;-75
2021/04/30 02:48:27;;;;;;;10.87;9.63;;;7.40;99.90;;;;;;5012674;28;20476;-75
2021/04/30 02:50:53;;;;;;;11.20;10.10;;;7.50;99.90;;;;;;5012413;28;20451;-76
2021/04/30 02:53:20;;;;;;;10.37;9.37;;;7.50;99.90;;;;;;5012379;28;20454;-73
2021/04/30 02:55:46;;;;;;;11.67;10.33;;;7.40;99.90;;;;;;5011902;28;20449;-74
2021/04/30 02:58:13;;;;;;;10.93;9.83;;;7.30;99.90;;;;;;5012405;28;20450;-72
2021/04/30 03:00:40;;;;;;;11.63;10.10;;;7.30;99.90;;;;;;5012364;28;20473;-74
2021/04/30 03:03:06;;;;;;;11.27;10.17;;;7.20;99.90;;;;;;5012226;28;21150;-75
2021/04/30 03:05:34;;;;;;;12.07;10.80;;;7.10;99.90;;;;;;5011730;28;20468;-74
2021/04/30 03:08:00;;;;;;;12.07;10.73;;;7.00;99.90;;;;;;5012467;28;20450;-74
2021/04/30 03:10:27;;;;;;;11.77;10.57;;;6.90;99.90;;;;;;5012051;28;20996;-74
2021/04/30 03:12:53;;;;;;;12.20;10.80;;;6.80;99.90;;;;;;5012060;28;20468;-74
2021/04/30 03:15:20;;;;;;;11.57;10.17;;;6.80;99.90;;;;;;5011958;28;20849;-74
2021/04/30 03:17:47;;;;;;;12.00;10.80;;;6.80;99.90;;;;;;5012187;28;20501;-75
2021/04/30 03:20:15;;;;;;;13.63;11.27;;;6.90;99.90;;;;;;5011867;28;20469;-75
2021/04/30 03:22:42;;;;;;;12.87;11.57;;;6.80;99.90;;;;;;5012151;28;20450;-74
2021/04/30 03:25:10;;;;;;;12.47;10.70;;;6.90;99.90;;;;;;5011673;28;20474;-74
2021/04/30 03:27:36;;;;;;;12.63;11.33;;;7.00;99.90;;;;;;5011872;28;20548;-73
2021/04/30 03:30:04;;;;;;;14.90;12.47;;;7.00;99.90;;;;;;5011949;28;20484;-75
2021/04/30 03:32:30;;;;;;;11.10;10.00;;;7.10;99.90;;;;;;5011791;28;20442;-75
2021/04/30 03:34:57;;;;;;;12.00;10.70;;;7.10;99.90;;;;;;5011422;28;20497;-75
2021/04/30 03:37:23;;;;;;;14.00;12.03;;;7.00;99.90;;;;;;5011931;28;21041;-75
2021/04/30 03:39:50;;;;;;;15.83;11.40;;;7.00;99.90;;;;;;5011620;28;20770;-74
2021/04/30 03:42:17;;;;;;;14.23;11.30;;;7.10;99.90;;;;;;5011562;28;20484;-73
2021/04/30 03:44:44;;;;;;;13.10;11.40;;;7.10;99.90;;;;;;5011143;28;20515;-72
2021/04/30 03:47:11;;;;;;;13.57;11.73;;;7.20;99.90;;;;;;5011306;28;20541;-74
2021/04/30 03:49:38;;;;;;;12.83;11.53;;;7.10;99.90;;;;;;5011860;28;20503;-74
2021/04/30 03:52:05;;;;;;;12.43;11.13;;;7.10;99.90;;;;;;5011406;28;20449;-74
2021/04/30 03:54:31;;;;;;;12.27;11.00;;;7.20;99.90;;;;;;5011072;28;20553;-72
2021/04/30 03:56:59;;;;;;;13.07;11.73;;;7.10;99.90;;;;;;5011427;28;20541;-74
2021/04/30 03:59:25;;;;;;;14.57;13.07;;;7.10;99.90;;;;;;5011501;28;20448;-74
2021/04/30 04:01:51;;;;;;;14.20;12.70;;;7.10;99.90;;;;;;5011530;28;21000;-73
2021/04/30 04:04:18;;;;;;;15.63;12.93;;;7.10;99.90;;;;;;5011166;28;20845;-73
2021/04/30 04:06:44;;;;;;;13.57;11.87;;;7.10;99.90;;;;;;5011060;28;20473;-72
2021/04/30 04:09:10;;;;;;;14.10;12.60;;;7.10;99.90;;;;;;5011059;28;20505;-74
2021/04/30 04:11:37;;;;;;;14.13;12.63;;;7.20;99.90;;;;;;5011017;28;20874;-74
2021/04/30 04:14:04;;;;;;;15.27;12.60;;;7.20;99.90;;;;;;5010784;28;20552;-75
2021/04/30 04:16:31;;;;;;;14.50;12.73;;;7.20;99.90;;;;;;5011183;28;20525;-73
2021/04/30 04:18:57;;;;;;;13.90;12.50;;;7.10;99.90;;;;;;5014714;28;20536;-74
2021/04/30 04:21:23;;;;;;;16.07;14.20;;;7.20;99.90;;;;;;5017623;28;20576;-73
2021/04/30 04:23:50;;;;;;;14.67;13.17;;;7.10;99.90;;;;;;5020667;28;20461;-73
2021/04/30 04:26:17;;;;;;;13.93;12.50;;;7.00;99.90;;;;;;5017721;28;20484;-74
2021/04/30 04:28:43;;;;;;;15.20;11.70;;;7.00;99.90;;;;;;5014675;28;20468;-73
2021/04/30 04:31:10;;;;;;;16.77;13.03;;;7.00;99.90;;;;;;5014750;28;20453;-74
2021/04/30 04:33:37;;;;;;;12.37;11.07;;;7.10;99.90;;;;;;5016260;28;20529;-73
2021/04/30 04:36:04;;;;;;;12.43;11.17;;;7.10;99.90;;;;;;5016614;28;20464;-73
2021/04/30 04:38:30;;;;;;;15.87;12.60;;;7.20;99.90;;;;;;5017381;28;20827;-75
2021/04/30 04:40:56;;;;;;;13.80;12.30;;;7.30;99.90;;;;;;5010797;28;20481;-75
2021/04/30 04:43:23;;;;;;;12.73;11.40;;;7.40;99.90;;;;;;5010504;28;21026;-73
2021/04/30 04:45:51;;;;;;;14.27;11.20;;;7.40;99.90;;;;;;5010757;28;20450;-73
2021/04/30 04:48:18;;;;;;;17.07;12.00;;;7.40;99.90;;;;;;5010695;28;21026;-74
2021/04/30 04:50:44;;;;;;;14.03;12.50;;;7.40;99.90;;;;;;5010609;28;20806;-75
2021/04/30 04:53:11;;;;;;;13.37;12.00;;;7.40;99.90;;;;;;5010153;28;20456;-75
2021/04/30 04:55:37;;;;;;;15.10;12.67;;;7.40;99.90;;;;;;5010477;28;20545;-75
2021/04/30 04:58:03;;;;;;;14.23;12.73;;;7.50;99.90;;;;;;5010382;28;20537;-73
2021/04/30 05:00:32;;;;;;;13.53;11.83;;;7.50;99.90;;;;;;5010144;28;20573;-73
2021/04/30 05:02:58;;;;;;;15.03;12.40;;;7.50;99.90;;;;;;5010113;28;20449;-74
2021/04/30 05:05:26;;;;;;;13.63;12.23;;;7.50;99.90;;;;;;5010127;28;20466;-75
2021/04/30 05:07:52;;;;;;;14.17;12.67;;;7.50;99.90;;;;;;5010426;28;20446;-75
2021/04/30 05:10:19;;;;;;;13.60;12.00;;;7.50;99.90;;;;;;5010431;28;20445;-75
2021/04/30 05:12:46;;;;;;;13.70;12.30;;;7.50;99.90;;;;;;5001115;28;20474;-74
2021/04/30 05:15:13;;;;;;;14.57;13.10;;;7.50;99.90;;;;;;5002608;28;20482;-73
2021/04/30 05:17:40;;;;;;;15.60;13.37;;;7.60;99.90;;;;;;5008302;28;20446;-73
2021/04/30 05:20:07;;;;;;;18.77;12.60;;;7.60;99.90;;;;;;5007760;28;20564;-73
2021/04/30 05:22:38;;;;;;;15.67;14.00;;;7.50;99.90;;;;;;5008453;28;20540;-75
2021/04/30 05:25:06;;;;;;;14.80;12.50;;;7.50;99.90;;;;;;5008714;28;20527;-72
2021/04/30 05:27:33;;;;;;;16.37;13.30;;;7.60;99.90;;;;;;5008999;28;20552;-70
2021/04/30 05:29:59;;;;;;;13.37;12.07;;;7.70;99.90;;;;;;5009231;28;20441;-72
2021/04/30 05:32:26;;;;;;;13.90;11.93;;;7.90;99.90;;;;;;5008742;28;20503;-71
2021/04/30 05:34:55;;;;;;;13.73;12.37;;;8.00;99.90;;;;;;5008189;28;21050;-69
2021/04/30 05:37:21;;;;;;;14.63;12.93;;;8.10;99.90;;;;;;5008313;28;20540;-70
2021/04/30 05:39:49;;;;;;;15.40;13.10;;;8.10;99.90;;;;;;5008532;28;20446;-69
2021/04/30 05:42:15;;;;;;;14.73;13.17;;;8.20;99.90;;;;;;5010922;28;20441;-71
2021/04/30 05:44:41;;;;;;;16.60;13.13;;;8.10;99.90;;;;;;5011914;28;20537;-74
2021/04/30 05:47:08;;;;;;;17.47;14.03;;;8.00;99.90;;;;;;5013964;28;20540;-76
2021/04/30 05:49:34;;;;;;;15.27;12.00;;;8.00;99.90;;;;;;5014248;28;20537;-76
2021/04/30 05:52:01;;;;;;;15.87;13.43;;;8.20;99.90;;;;;;5008677;28;20569;-76
2021/04/30 05:54:27;;;;;;;16.23;12.17;;;8.30;99.90;;;;;;5010806;28;20946;-71
2021/04/30 05:56:54;;;;;;;15.60;12.07;;;8.40;99.90;;;;;;5013930;28;20465;-71
2021/04/30 05:59:21;;;;;;;12.90;11.30;;;8.40;99.90;;;;;;5012785;28;20456;-73
2021/04/30 06:01:47;;;;;;;18.17;13.53;;;8.50;99.90;;;;;;5010716;28;21249;-74
2021/04/30 06:04:13;;;;;;;14.60;13.10;;;8.50;99.90;;;;;;5006844;28;20459;-72
2021/04/30 06:06:40;;;;;;;17.93;12.90;;;8.60;99.90;;;;;;5011551;28;20454;-71
2021/04/30 06:09:06;;;;;;;14.23;11.80;;;8.70;99.90;;;;;;5018472;28;20502;-74
2021/04/30 06:11:32;;;;;;;17.03;11.90;;;8.70;99.90;;;;;;5010600;28;20539;-71
2021/04/30 06:14:00;;;;;;;13.47;10.70;;;8.90;99.90;;;;;;5010807;28;20516;-72
2021/04/30 06:16:26;;;;;;;14.47;11.37;;;9.00;99.90;;;;;;5001971;28;20532;-70
2021/04/30 06:18:52;;;;;;;12.30;11.03;;;9.00;99.90;;;;;;5010178;28;20592;-71
2021/04/30 06:21:19;;;;;;;14.13;11.00;;;8.90;99.90;;;;;;5008070;28;20474;-73
2021/04/30 06:23:45;;;;;;;13.47;11.73;;;8.90;99.90;;;;;;5009384;28;20474;-72
2021/04/30 06:26:12;;;;;;;16.10;12.27;;;8.80;99.90;;;;;;5008821;28;20489;-72
2021/04/30 06:28:38;;;;;;;12.90;10.47;;;8.90;99.90;;;;;;5012877;28;21043;-70
2021/04/30 06:31:05;;;;;;;11.80;10.33;;;8.80;99.90;;;;;;5010113;28;21244;-72
2021/04/30 06:33:32;;;;;;;14.33;10.50;;;8.70;99.90;;;;;;5011190;28;20552;-74
2021/04/30 06:35:59;;;;;;;16.33;12.97;;;8.80;99.90;;;;;;5013997;28;20601;-73
2021/04/30 06:38:25;;;;;;;12.97;11.53;;;8.70;99.90;;;;;;5011655;28;20573;-73
2021/04/30 06:40:52;;;;;;;13.43;11.00;;;8.70;99.90;;;;;;5007786;28;20830;-73
2021/04/30 06:43:18;;;;;;;14.70;11.83;;;8.70;99.90;;;;;;5008513;28;20458;-74
2021/04/30 06:45:44;;;;;;;13.60;11.17;;;8.70;99.90;;;;;;5009662;28;20949;-72
2021/04/30 06:48:12;;;;;;;12.30;11.00;;;8.80;99.90;;;;;;5008387;28;20795;-69
2021/04/30 06:50:38;;;;;;;13.43;11.30;;;8.80;99.90;;;;;;5006664;28;20453;-73
2021/04/30 06:53:05;;;;;;;14.00;10.87;;;8.70;99.90;;;;;;5006489;28;20533;-74
2021/04/30 06:55:31;;;;;;;14.40;11.53;;;8.60;99.90;;;;;;5006614;28;20524;-71
2021/04/30 06:57:57;;;;;;;11.93;10.70;;;8.70;99.90;;;;;;5008133;28;20545;-73
2021/04/30 07:00:24;;;;;;;13.40;11.73;;;8.70;99.90;;;;;;5008994;28;20576;-74
2021/04/30 07:02:50;;;;;;;13.17;11.60;;;8.70;99.90;;;;;;5007485;28;20442;-72
2021/04/30 07:05:18;;;;;;;12.50;11.20;;;8.80;99.90;;;;;;5006097;28;20593;-72
2021/04/30 07:07:44;;;;;;;12.27;11.07;;;9.00;99.90;;;;;;5007456;28;20441;-72
2021/04/30 07:10:12;;;;;;;12.53;10.80;;;8.90;99.90;;;;;;5007725;28;20481;-72
2021/04/30 07:12:38;;;;;;;13.40;11.00;;;8.90;99.90;;;;;;5007307;28;20541;-72
2021/04/30 07:15:07;;;;;;;12.90;10.80;;;8.80;99.90;;;;;;5005948;28;20552;-72
2021/04/30 07:17:34;;;;;;;12.20;11.00;;;8.80;99.90;;;;;;5006777;28;20462;-70
2021/04/30 07:20:00;;;;;;;12.40;11.10;;;8.80;99.90;;;;;;5002954;28;20834;-72
2021/04/30 07:22:27;;;;;;;11.63;10.43;;;8.80;99.90;;;;;;5006986;28;20454;-74
2021/04/30 07:24:54;;;;;;;14.07;11.33;;;8.90;99.90;;;;;;5006294;28;20549;-73
2021/04/30 07:27:21;;;;;;;14.40;11.60;;;8.90;99.90;;;;;;5006871;28;20524;-71
2021/04/30 07:29:48;;;;;;;12.47;10.30;;;9.00;99.90;;;;;;5007488;28;20450;-74
2021/04/30 07:32:14;;;;;;;15.57;10.40;;;9.20;99.90;;;;;;5007095;28;20441;-74
2021/04/30 07:34:40;;;;;;;14.40;10.20;;;9.00;99.90;;;;;;5005742;28;20466;-72
2021/04/30 07:37:07;;;;;;;13.80;10.47;;;9.00;99.90;;;;;;5006685;28;20469;-73
2021/04/30 07:39:35;;;;;;;10.43;9.33;;;9.00;99.90;;;;;;5006757;28;20477;-72
2021/04/30 07:42:01;;;;;;;11.43;10.20;;;9.00;99.90;;;;;;5006225;28;20477;-73
2021/04/30 07:44:28;;;;;;;11.47;9.83;;;8.90;99.90;;;;;;5006583;28;20466;-74
2021/04/30 07:46:54;;;;;;;12.40;11.10;;;9.00;99.90;;;;;;5006647;28;20537;-73
2021/04/30 07:49:21;;;;;;;13.30;10.67;;;9.00;99.90;;;;;;5007301;28;20837;-69
2021/04/30 07:51:47;;;;;;;12.40;11.10;;;9.00;99.90;;;;;;5006815;28;20442;-72
2021/04/30 07:54:13;;;;;;;11.40;10.30;;;9.00;99.90;;;;;;5006253;28;20469;-73
2021/04/30 07:56:41;;;;;;;13.47;11.47;;;9.10;99.90;;;;;;5006335;28;20442;-74
2021/04/30 07:59:07;;;;;;;11.10;10.00;;;9.10;99.90;;;;;;5007716;28;20553;-72
2021/04/30 08:01:33;;;;;;;12.43;10.43;;;9.20;99.90;;;;;;5006349;28;20473;-73
2021/04/30 08:04:00;;;;;;;11.70;10.13;;;9.20;99.90;;;;;;5005273;28;20629;-73
2021/04/30 08:06:26;;;;;;;12.47;10.77;;;9.20;99.90;;;;;;5008838;28;20476;-74
2021/04/30 08:08:53;;;;;;;11.90;10.57;;;9.20;99.90;;;;;;5010254;28;20858;-73
2021/04/30 08:11:19;;;;;;;11.30;10.13;;;9.20;99.90;;;;;;5006248;28;20446;-74
2021/04/30 08:13:46;;;;;;;12.67;11.30;;;9.30;99.90;;;;;;5021582;28;20469;-71
2021/04/30 08:16:13;;;;;;;12.47;11.17;;;9.30;99.90;;;;;;5025133;28;20487;-72
2021/04/30 08:18:39;;;;;;;11.10;9.80;;;9.30;99.90;;;;;;5026200;28;20448;-72
2021/04/30 08:21:06;;;;;;;13.67;10.87;;;9.30;99.90;;;;;;5026068;28;20567;-68
2021/04/30 08:23:34;;;;;;;12.60;10.97;;;9.20;99.90;;;;;;5025261;28;20472;-72
2021/04/30 08:26:00;;;;;;;11.20;10.10;;;9.10;99.90;;;;;;5024577;28;20536;-72
2021/04/30 08:28:27;;;;;;;12.70;10.47;;;9.10;99.90;;;;;;5025665;28;20444;-73
2021/04/30 08:30:55;;;;;;;12.00;10.80;;;9.10;99.90;;;;;;5025628;28;20459;-73
2021/04/30 08:33:24;;;;;;;13.90;11.60;;;9.10;99.90;;;;;;5025716;28;20887;-71
2021/04/30 08:35:51;;;;;;;11.87;10.67;;;9.10;99.90;;;;;;5025268;28;20551;-72
2021/04/30 08:38:17;;;;;;;11.73;9.80;;;9.10;99.90;;;;;;5025497;28;20521;-71
2021/04/30 08:40:43;;;;;;;14.90;11.20;;;9.20;99.90;;;;;;5025408;28;20473;-71
2021/04/30 08:43:10;;;;;;;12.40;10.90;;;9.30;99.90;;;;;;5025444;28;20445;-72
2021/04/30 08:45:39;;;;;;;12.63;9.90;;;9.30;99.90;;;;;;5010499;28;20524;-72
2021/04/30 08:48:10;;;;;;;11.83;9.73;;;9.40;99.90;;;;;;5006219;28;20468;-72
2021/04/30 08:50:36;;;;;;;16.27;13.40;;;9.40;99.90;;;;;;5006378;28;20517;-71
2021/04/30 08:53:05;;;;;;;13.13;10.80;;;9.40;99.90;;;;;;5005991;28;20528;-71
2021/04/30 08:55:32;;;;;;;12.43;11.13;;;9.50;99.90;;;;;;5002251;28;20503;-72
2021/04/30 08:57:58;;;;;;;13.17;10.30;;;9.50;99.90;;;;;;5006075;28;20957;-70
2021/04/30 09:00:26;;;;;;;16.47;11.33;;;9.60;99.90;;;;;;5005734;28;20478;-70
2021/04/30 09:02:53;;;;;;;13.57;10.80;;;9.50;99.90;;;;;;5005687;28;20449;-71
2021/04/30 09:05:25;;;;;;;10.83;9.73;;;9.50;99.90;;;;;;5005153;28;20468;-70
2021/04/30 09:07:56;;;;;;;11.80;10.33;;;9.50;99.90;;;;;;5006566;28;20439;-70
2021/04/30 09:10:23;;;;;;;11.20;10.00;;;9.40;99.90;;;;;;5006121;28;20960;-72
2021/04/30 09:13:05;;;;;;;13.03;10.57;;;9.40;99.90;;;;;;5006447;28;20890;-72
2021/04/30 09:15:31;;;;;;;13.97;10.47;;;9.30;99.90;;;;;;5006019;28;20520;-70
2021/04/30 09:18:24;;;;;;;13.27;10.30;;;9.40;99.90;;;;;;5009751;28;20441;-72
2021/04/30 09:20:52;;;;;;;14.63;12.77;;;9.40;99.90;;;;;;5009766;28;20477;-70
2021/04/30 09:23:36;;;;;;;14.30;12.00;;;9.40;99.90;;;;;;5009486;28;20442;-70
2021/04/30 09:26:20;;;;;;;15.40;12.57;;;9.50;99.90;;;;;;5008642;28;20445;-70
2021/04/30 09:28:58;;;;;;;17.80;13.13;;;9.40;99.90;;;;;;5009893;28;20449;-70
2021/04/30 09:31:32;;;;;;;13.60;11.93;;;9.30;99.90;;;;;;5009689;28;20470;-71
2021/04/30 09:34:14;;;;;;;14.87;12.40;;;9.20;99.90;;;;;;5008393;28;20524;-70
2021/04/30 09:37:11;;;;;;;14.63;12.10;;;9.20;99.90;;;;;;5008992;28;20533;-71
2021/04/30 09:39:49;;;;;;;15.80;14.10;;;9.20;99.90;;;;;;5007424;28;20473;-70
2021/04/30 09:42:17;;;;;;;15.00;13.50;;;9.10;99.90;;;;;;5009115;28;20596;-70
2021/04/30 09:44:45;;;;;;;15.47;13.40;;;9.10;99.90;;;;;;5007870;28;20485;-71
2021/04/30 09:47:20;;;;;;;16.47;12.80;;;9.20;99.90;;;;;;5008703;28;20453;-71
2021/04/30 09:49:49;;;;;;;14.60;13.00;;;9.30;99.90;;;;;;5008581;28;20496;-71
2021/04/30 09:52:17;;;;;;;14.90;12.63;;;9.40;99.90;;;;;;5008980;28;20975;-71
2021/04/30 09:54:44;;;;;;;14.83;13.07;;;9.50;99.90;;;;;;5008321;28;20462;-72
2021/04/30 09:57:16;;;;;;;14.83;12.70;;;9.60;99.90;;;;;;5008291;28;20492;-72
2021/04/30 09:59:45;;;;;;;17.13;13.20;;;9.60;99.90;;;;;;5006213;28;20472;-70
2021/04/30 10:02:15;;;;;;;14.60;13.10;;;9.60;99.90;;;;;;5008404;28;20996;-72
2021/04/30 10:04:43;;;;;;;15.50;13.87;;;9.60;99.90;;;;;;5007452;28;20527;-71
2021/04/30 10:07:11;;;;;;;16.17;13.43;;;9.60;99.90;;;;;;5008801;28;20450;-69
2021/04/30 10:09:40;;;;;;;16.17;13.53;;;9.50;99.90;;;;;;5009446;28;20446;-71
2021/04/30 10:12:22;;;;;;;17.73;13.80;;;9.40;99.90;;;;;;5008611;28;21088;-70
2021/04/30 10:14:49;;;;;;;15.03;13.10;;;9.30;99.90;;;;;;5007832;28;20524;-70
2021/04/30 10:17:16;;;;;;;14.07;12.67;;;9.30;99.90;;;;;;5008421;28;20477;-70
2021/04/30 10:19:44;;;;;;;14.73;12.93;;;9.20;99.90;;;;;;5007923;28;20450;-69
2021/04/30 10:22:18;;;;;;;16.10;14.40;;;9.20;99.90;;;;;;5010150;28;20572;-69
2021/04/30 10:24:49;;;;;;;15.13;13.17;;;9.20;99.90;;;;;;5010166;28;20848;-68
2021/04/30 10:27:19;;;;;;;18.67;13.77;;;9.10;99.90;;;;;;5010574;28;21045;-69
2021/04/30 10:30:19;;;;;;;16.20;13.27;;;9.10;99.90;;;;;;5011973;28;20625;-70
2021/04/30 10:32:51;;;;;;;15.90;14.20;;;9.10;99.90;;;;;;5001319;28;20458;-71
2021/04/30 10:35:24;;;;;;;16.60;14.60;;;9.00;99.90;;;;;;5011679;28;20549;-69
2021/04/30 10:37:52;;;;;;;16.50;14.50;;;9.10;99.90;;;;;;5011462;28;20449;-70
2021/04/30 10:40:19;;;;;;;16.77;14.57;;;9.10;99.90;;;;;;5011613;28;20507;-69
2021/04/30 10:42:46;;;;;;;19.00;14.00;;;8.90;99.90;;;;;;5011586;28;20979;-68
2021/04/30 10:45:15;;;;;;;18.90;15.93;;;8.80;99.90;;;;;;5008225;28;20593;-70
2021/04/30 10:47:43;;;;;;;20.50;16.10;;;8.70;99.90;;;;;;5008389;28;21008;-70
2021/04/30 10:50:16;;;;;;;18.70;15.97;;;8.60;99.90;;;;;;5008912;28;20539;-70
2021/04/30 10:52:42;;;;;;;17.93;15.67;;;8.40;99.90;;;;;;5011578;28;20506;-68
2021/04/30 10:55:11;;;;;;;23.80;15.33;;;8.30;99.90;;;;;;5011226;28;20839;-70
2021/04/30 10:58:03;;;;;;;20.23;15.90;;;8.30;99.90;;;;;;5004458;28;20600;-72
2021/04/30 11:00:38;;;;;;;19.70;15.97;;;8.10;99.90;;;;;;4996398;28;20458;-70
2021/04/30 11:03:18;;;;;;;26.93;20.33;;;8.00;99.90;;;;;;5011413;28;20441;-72
2021/04/30 11:06:00;;;;;;;25.40;22.70;;;7.90;99.90;;;;;;5010301;28;20780;-71
2021/04/30 11:08:48;;;;;;;24.03;21.07;;;7.90;99.90;;;;;;5009789;28;20202;-70
2021/04/30 11:11:16;;;;;;;27.10;21.67;;;7.80;99.90;;;;;;5010623;28;20445;-70
2021/04/30 11:14:22;;;;;;;29.10;21.87;;;7.70;99.90;;;;;;5010632;28;20469;-69
2021/04/30 11:16:48;;;;;;;31.10;22.23;;;7.70;99.90;;;;;;5010331;28;20481;-71
2021/04/30 11:19:15;;;;;;;27.00;21.60;;;7.60;99.90;;;;;;5010150;28;20485;-69
2021/04/30 11:21:44;;;;;;;25.77;20.30;;;7.50;99.90;;;;;;5003594;28;20917;-69
2021/04/30 11:24:33;;;;;;;25.53;20.80;;;7.50;99.90;;;;;;5001462;28;20545;-70
2021/04/30 11:27:33;;;;;;;27.90;21.17;;;7.40;99.90;;;;;;5004075;28;20466;-71
2021/04/30 11:30:23;;;;;;;23.13;18.00;;;7.30;99.90;;;;;;4996647;28;22203;-71
2021/04/30 11:33:00;;;;;;;26.63;18.87;;;7.20;99.90;;;;;;5003295;28;20464;-73
2021/04/30 11:35:28;;;;;;;25.93;19.93;;;7.10;99.90;;;;;;5000586;28;20534;-71
2021/04/30 11:37:56;;;;;;;24.30;18.20;;;7.00;99.90;;;;;;5003239;28;20548;-71
2021/04/30 11:40:23;;;;;;;26.30;20.80;;;6.90;99.90;;;;;;5001283;28;20561;-72
2021/04/30 11:42:50;;;;;;;26.40;19.90;;;6.90;99.90;;;;;;5005229;28;20464;-72
2021/04/30 11:45:17;;;;;;;23.30;18.77;;;7.00;99.90;;;;;;5001960;28;20612;-71
2021/04/30 11:47:44;;;;;;;22.63;17.70;;;7.00;99.90;;;;;;5003174;28;20454;-70
2021/04/30 11:50:15;;;;;;;22.23;17.60;;;7.00;99.90;;;;;;5004799;28;20607;-71
2021/04/30 11:52:45;;;;;;;25.67;19.53;;;7.10;99.90;;;;;;5010329;28;20517;-71
2021/04/30 11:55:13;;;;;;;24.30;19.50;;;7.10;99.90;;;;;;5009627;28;20608;-70
2021/04/30 11:57:41;;;;;;;23.43;17.50;;;7.10;99.90;;;;;;5010285;28;20441;-69
2021/04/30 12:00:18;;;;;;;22.40;16.80;;;7.10;99.90;;;;;;5010422;28;20521;-69
2021/04/30 12:02:45;;;;;;;22.30;18.40;;;7.00;99.90;;;;;;5009743;28;20489;-71
2021/04/30 12:05:12;;;;;;;23.53;18.37;;;7.00;99.90;;;;;;5009208;28;20577;-70
2021/04/30 12:07:39;;;;;;;21.53;17.60;;;7.00;99.90;;;;;;5010199;28;20807;-70
2021/04/30 12:10:19;;;;;;;19.97;17.50;;;7.00;99.90;;;;;;5010131;28;21004;-69
2021/04/30 12:12:46;;;;;;;22.93;17.97;;;6.90;99.90;;;;;;5009814;28;20465;-70
2021/04/30 12:15:16;;;;;;;21.17;17.83;;;6.90;99.90;;;;;;5009692;28;20485;-69
2021/04/30 12:17:44;;;;;;;18.30;16.00;;;6.80;99.90;;;;;;5009949;28;20452;-69
2021/04/30 12:20:16;;;;;;;25.93;19.00;;;6.80;99.90;;;;;;5010344;28;20450;-69
2021/04/30 12:22:49;;;;;;;24.43;19.50;;;6.80;99.90;;;;;;5010256;28;20478;-69
2021/04/30 12:25:27;;;;;;;23.07;18.90;;;6.80;99.90;;;;;;5009735;28;20488;-69
2021/04/30 12:27:54;;;;;;;23.27;18.47;;;6.80;99.90;;;;;;4995517;28;20466;-69
2021/04/30 12:30:31;;;;;;;24.60;19.13;;;6.90;99.90;;;;;;5004035;28;20884;-69
2021/04/30 12:32:58;;;;;;;22.53;19.07;;;6.90;99.90;;;;;;5002147;28;20520;-70
2021/04/30 12:35:26;;;;;;;26.43;19.50;;;7.00;99.90;;;;;;5008928;28;20469;-69
2021/04/30 12:37:53;;;;;;;27.10;17.97;;;7.00;99.90;;;;;;5006196;28;20581;-69
2021/04/30 12:40:27;;;;;;;23.90;19.03;;;7.10;99.90;;;;;;5009700;28;20937;-69
2021/04/30 12:42:54;;;;;;;24.03;18.87;;;7.20;99.90;;;;;;5009254;28;20445;-70
2021/04/30 12:45:21;;;;;;;17.60;15.40;;;7.20;99.90;;;;;;5009491;28;20458;-67
2021/04/30 12:47:51;;;;;;;19.93;15.83;;;7.10;99.90;;;;;;5009790;28;20511;-67